Crystalady — ZGBE5 — position and weather

sailwx.info

Track history (hours):
 
Tides and Currents Weather Stations Pressure Air Temp Water Temp Dewpoint Dewpoint Depression Visibility Wind Speed Wind Dir Waves Ship Positions

Crystalady

Last reported at 2018-Aug-15 07:22 UTC. Time now 2018-Aug-15 12:24 UTC.
Position N 41°23' E 002°11'.

Length 47 m; draft 3.1 m.

Type: Pleasure craft. MMSI: 319026100.

Date/timePositionNaut miles runAvg speedWind from/ knotsBaromVisibWave heightAir tempDewpointWater temp
2018-Aug-15 07:22N 41°23' E 002°11'1 3.8
2018-Aug-15 07:00N 41°21' E 002°11'2 2.4
2018-Aug-15 06:22N 41°21' E 002°14'2 4.7
2018-Aug-15 06:00N 41°19' E 002°14'612.0
2018-Aug-15 05:30N 41°13' E 002°14'14810.4
2018-Aug-14 15:19N 38°50' E 001°25'411.4
2018-Aug-14 15:00N 38°54' E 001°27'1 0.8
2018-Aug-14 13:47N 38°55' E 001°27'0 0.0
2018-Aug-14 12:25N 38°55' E 001°27'0 0.0
2018-Aug-14 10:11N 38°55' E 001°27'0 0.0
2018-Aug-13 17:47N 38°55' E 001°27'0 0.0
2018-Aug-13 17:28N 38°55' E 001°27'0 0.0
2018-Aug-13 16:32N 38°55' E 001°27'0 0.0
2018-Aug-13 16:25N 38°55' E 001°27'0 0.0
2018-Aug-13 11:44N 38°55' E 001°27'0 0.1
2018-Aug-13 11:17N 38°55' E 001°27'0 0.0
2018-Aug-12 18:36N 38°55' E 001°27'0 0.0
2018-Aug-12 18:29N 38°55' E 001°27'0 0.1
2018-Aug-12 17:54N 38°55' E 001°27'1 2.4
2018-Aug-12 17:29N 38°54' E 001°26'0 0.0
2018-Aug-12 16:59N 38°54' E 001°26'0 0.0
2018-Aug-12 16:30N 38°54' E 001°26'0 0.0
2018-Aug-12 15:57N 38°54' E 001°26'0 0.0
2018-Aug-12 15:29N 38°54' E 001°26'0 0.0
2018-Aug-12 14:58N 38°54' E 001°26'0 0.0
2018-Aug-12 14:21N 38°54' E 001°26'0 0.1
2018-Aug-12 14:00N 38°54' E 001°26'1 0.3
2018-Aug-12 10:04N 38°53' E 001°25'1 9.9
2018-Aug-12 10:00N 38°53' E 001°26'1 1.1
2018-Aug-12 09:28N 38°54' E 001°26'0 0.0
2018-Aug-12 08:58N 38°54' E 001°26'0 0.0
2018-Aug-12 08:29N 38°54' E 001°26'0 0.0
2018-Aug-12 07:57N 38°54' E 001°26'0 0.0
2018-Aug-12 07:30N 38°54' E 001°26'0 0.0
2018-Aug-12 06:58N 38°54' E 001°26'0 0.0
2018-Aug-12 06:30N 38°54' E 001°26'0 0.0
2018-Aug-12 05:56N 38°54' E 001°26'0 0.0
2018-Aug-12 05:30N 38°54' E 001°26'0 0.0
2018-Aug-12 04:58N 38°54' E 001°26'0 0.0
2018-Aug-12 04:30N 38°54' E 001°26'0 0.0
2018-Aug-12 03:58N 38°54' E 001°26'0 0.0
2018-Aug-12 03:29N 38°54' E 001°26'0 0.0
2018-Aug-12 03:00N 38°54' E 001°26'0 0.0
2018-Aug-12 02:29N 38°54' E 001°26'0 0.0
2018-Aug-12 01:57N 38°54' E 001°26'0 0.0
2018-Aug-12 01:29N 38°54' E 001°26'0 0.0
2018-Aug-12 00:57N 38°54' E 001°26'0 0.0
2018-Aug-12 00:27N 38°54' E 001°26'0 0.0
2018-Aug-11 23:55N 38°54' E 001°26'0 0.0
2018-Aug-11 23:29N 38°54' E 001°26'0 0.0
2018-Aug-11 22:53N 38°54' E 001°26'0 0.0
2018-Aug-11 22:27N 38°54' E 001°26'0 0.0
2018-Aug-11 22:00N 38°54' E 001°26'0 0.0
2018-Aug-11 21:27N 38°54' E 001°26'0 0.0
2018-Aug-11 20:57N 38°54' E 001°26'0 0.0
2018-Aug-11 20:31N 38°54' E 001°26'0 0.0
2018-Aug-11 19:58N 38°54' E 001°26'0 0.0
2018-Aug-11 19:29N 38°54' E 001°26'0 0.0
2018-Aug-11 18:56N 38°54' E 001°26'0 0.0
2018-Aug-11 18:29N 38°54' E 001°26'0 0.0
2018-Aug-11 18:00N 38°54' E 001°26'0 0.0
2018-Aug-11 17:29N 38°54' E 001°26'0 0.0
2018-Aug-11 16:58N 38°54' E 001°26'0 0.0
2018-Aug-11 16:27N 38°54' E 001°26'0 0.0
2018-Aug-11 15:58N 38°54' E 001°26'0 0.0
2018-Aug-11 15:27N 38°54' E 001°26'0 0.0
2018-Aug-11 14:54N 38°54' E 001°26'0 0.0
2018-Aug-11 14:30N 38°54' E 001°26'0 0.0
2018-Aug-11 13:59N 38°54' E 001°26'0 0.1
2018-Aug-11 13:30N 38°54' E 001°26'5 9.2
2018-Aug-11 13:00N 38°55' E 001°31'4812.6
2018-Aug-11 09:10N 39°22' E 002°23'212.6
2018-Aug-11 09:00N 39°23' E 002°26'612.7
2018-Aug-11 08:30N 39°27' E 002°32'4 9.0
2018-Aug-11 08:00N 39°32' E 002°34'0 0.5
2018-Aug-11 07:30N 39°32' E 002°34'0 0.0
2018-Aug-11 07:00N 39°32' E 002°34'0 0.0
2018-Aug-11 06:30N 39°32' E 002°34'0 0.0
2018-Aug-11 06:00N 39°32' E 002°34'0 0.0
2018-Aug-11 05:30N 39°32' E 002°34'0 0.0
2018-Aug-11 05:00N 39°32' E 002°34'0 0.0
2018-Aug-11 04:30N 39°32' E 002°34'0 0.0
2018-Aug-11 04:00N 39°32' E 002°34'0 0.0
2018-Aug-11 03:30N 39°32' E 002°34'0 0.0
2018-Aug-11 03:00N 39°32' E 002°34'0 0.0
2018-Aug-11 02:30N 39°32' E 002°34'0 0.0
2018-Aug-11 02:00N 39°32' E 002°34'0 0.0
2018-Aug-11 01:29N 39°32' E 002°34'0 0.0
2018-Aug-11 00:59N 39°32' E 002°34'0 0.0
2018-Aug-11 00:28N 39°32' E 002°34'0 0.0
2018-Aug-10 23:57N 39°32' E 002°34'0 0.0
2018-Aug-10 23:28N 39°32' E 002°34'0 0.0
2018-Aug-10 22:58N 39°32' E 002°34'0 0.0
2018-Aug-10 22:18N 39°32' E 002°34'0 0.0
2018-Aug-10 21:59N 39°32' E 002°34'0 0.0
2018-Aug-10 21:28N 39°32' E 002°34'0 0.0
2018-Aug-10 20:59N 39°32' E 002°34'0 0.0
2018-Aug-10 20:28N 39°32' E 002°34'0 0.0
2018-Aug-10 19:59N 39°32' E 002°34'0 0.0
2018-Aug-10 19:30N 39°32' E 002°34'0 0.0
2018-Aug-10 18:59N 39°32' E 002°34'0 0.0
2018-Aug-10 18:30N 39°32' E 002°34'0 0.0
2018-Aug-10 18:00N 39°32' E 002°34'0 0.0
2018-Aug-10 17:30N 39°32' E 002°34'0 0.0
2018-Aug-10 16:58N 39°32' E 002°34'0 0.0
2018-Aug-10 16:30N 39°32' E 002°34'0 0.0
2018-Aug-10 16:00N 39°32' E 002°34'0 0.0
2018-Aug-10 15:30N 39°32' E 002°34'0 0.0
2018-Aug-10 15:00N 39°32' E 002°34'0 0.0
2018-Aug-10 14:28N 39°32' E 002°34'0 0.0
2018-Aug-10 14:00N 39°32' E 002°34'0 0.0
2018-Aug-10 13:30N 39°32' E 002°34'0 0.0
2018-Aug-10 12:59N 39°32' E 002°34'0 0.0
2018-Aug-10 12:21N 39°32' E 002°34'0 0.0
2018-Aug-10 12:00N 39°32' E 002°34'0 0.0
2018-Aug-10 11:30N 39°32' E 002°34'0 0.0
2018-Aug-10 10:59N 39°32' E 002°34'0 0.0
2018-Aug-10 10:29N 39°32' E 002°34'0 0.0
2018-Aug-10 09:59N 39°32' E 002°34'0 0.0
2018-Aug-10 09:29N 39°32' E 002°34'0 0.0
2018-Aug-10 09:00N 39°32' E 002°34'0 0.0
2018-Aug-10 08:30N 39°32' E 002°34'0 0.0
2018-Aug-10 08:00N 39°32' E 002°34'0 0.0
2018-Aug-10 07:28N 39°32' E 002°34'0 0.0
2018-Aug-10 06:59N 39°32' E 002°34'0 0.0
2018-Aug-10 06:30N 39°32' E 002°34'0 0.0
2018-Aug-10 06:00N 39°32' E 002°34'0 0.0
2018-Aug-10 05:28N 39°32' E 002°34'0 0.0
2018-Aug-10 04:59N 39°32' E 002°34'0 0.0
2018-Aug-10 04:30N 39°32' E 002°34'0 0.0
2018-Aug-10 03:57N 39°32' E 002°34'0 0.0
2018-Aug-10 03:23N 39°32' E 002°34'0 0.0
2018-Aug-10 02:51N 39°32' E 002°34'0 0.0
2018-Aug-10 02:28N 39°32' E 002°34'0 0.0
2018-Aug-10 01:59N 39°32' E 002°34'0 0.0
2018-Aug-10 01:25N 39°32' E 002°34'0 0.0
2018-Aug-10 00:59N 39°32' E 002°34'0 0.0
2018-Aug-10 00:30N 39°32' E 002°34'0 0.0
2018-Aug-09 23:09N 39°32' E 002°34'0 0.0
2018-Aug-09 23:00N 39°32' E 002°34'0 0.0
2018-Aug-09 22:30N 39°32' E 002°34'0 0.0
2018-Aug-09 21:48N 39°32' E 002°34'0 0.0
2018-Aug-09 21:22N 39°32' E 002°34'0 0.0
2018-Aug-09 20:35N 39°32' E 002°34'0 0.0
2018-Aug-09 20:30N 39°32' E 002°34'0 0.0
2018-Aug-09 19:56N 39°32' E 002°34'0 0.0
2018-Aug-09 19:25N 39°32' E 002°34'0 0.0
2018-Aug-09 19:00N 39°32' E 002°34'0 0.0
2018-Aug-09 18:30N 39°32' E 002°34'0 0.0
2018-Aug-09 17:57N 39°32' E 002°34'0 0.0
2018-Aug-09 16:48N 39°32' E 002°34'0 0.0
2018-Aug-09 16:19N 39°32' E 002°34'0 0.0
2018-Aug-09 15:59N 39°32' E 002°34'0 0.0
2018-Aug-09 15:29N 39°32' E 002°34'0 0.0
2018-Aug-09 14:43N 39°32' E 002°34'0 0.0
2018-Aug-09 14:29N 39°32' E 002°34'1 1.9
2018-Aug-09 14:00N 39°31' E 002°34'612.4
2018-Aug-09 13:30N 39°26' E 002°38'612.9
2018-Aug-09 13:00N 39°21' E 002°44'612.7
2018-Aug-09 12:30N 39°18' E 002°52'712.6
2018-Aug-09 11:59N 39°16' E 002°60'1511.5
2018-Aug-09 10:39N 39°21' E 003°18'412.3
2018-Aug-09 10:21N 39°23' E 003°23'299 6.7
2018-Aug-07 13:32N 41°15' E 009°26'0 0.0
2018-Aug-07 13:23N 41°15' E 009°26'0 0.0
2018-Aug-07 12:56N 41°15' E 009°26'  
Track history (hours):
 
Tides and Currents Weather Stations Pressure Air Temp Water Temp Dewpoint Dewpoint Depression Visibility Wind Speed Wind Dir Waves Ship Positions

Crystalady

Last reported at 2018-Aug-15 07:22 UTC. Time now 2018-Aug-15 12:24 UTC.
Position N 41°23' E 002°11'.

Length 47 m; draft 3.1 m.

Type: Pleasure craft. MMSI: 319026100.

Date/timePositionNaut miles runAvg speedWind from/ knotsBaromVisibWave heightAir tempDewpointWater temp
2018-Aug-15 07:22N 41°23' E 002°11'1 3.8
2018-Aug-15 07:00N 41°21' E 002°11'2 2.4
2018-Aug-15 06:22N 41°21' E 002°14'2 4.7
2018-Aug-15 06:00N 41°19' E 002°14'612.0
2018-Aug-15 05:30N 41°13' E 002°14'14810.4
2018-Aug-14 15:19N 38°50' E 001°25'411.4
2018-Aug-14 15:00N 38°54' E 001°27'1 0.8
2018-Aug-14 13:47N 38°55' E 001°27'0 0.0
2018-Aug-14 12:25N 38°55' E 001°27'0 0.0
2018-Aug-14 10:11N 38°55' E 001°27'0 0.0
2018-Aug-13 17:47N 38°55' E 001°27'0 0.0
2018-Aug-13 17:28N 38°55' E 001°27'0 0.0
2018-Aug-13 16:32N 38°55' E 001°27'0 0.0
2018-Aug-13 16:25N 38°55' E 001°27'0 0.0
2018-Aug-13 11:44N 38°55' E 001°27'0 0.1
2018-Aug-13 11:17N 38°55' E 001°27'0 0.0
2018-Aug-12 18:36N 38°55' E 001°27'0 0.0
2018-Aug-12 18:29N 38°55' E 001°27'0 0.1
2018-Aug-12 17:54N 38°55' E 001°27'1 2.4
2018-Aug-12 17:29N 38°54' E 001°26'0 0.0
2018-Aug-12 16:59N 38°54' E 001°26'0 0.0
2018-Aug-12 16:30N 38°54' E 001°26'0 0.0
2018-Aug-12 15:57N 38°54' E 001°26'0 0.0
2018-Aug-12 15:29N 38°54' E 001°26'0 0.0
2018-Aug-12 14:58N 38°54' E 001°26'0 0.0
2018-Aug-12 14:21N 38°54' E 001°26'0 0.1
2018-Aug-12 14:00N 38°54' E 001°26'1 0.3
2018-Aug-12 10:04N 38°53' E 001°25'1 9.9
2018-Aug-12 10:00N 38°53' E 001°26'1 1.1
2018-Aug-12 09:28N 38°54' E 001°26'0 0.0
2018-Aug-12 08:58N 38°54' E 001°26'0 0.0
2018-Aug-12 08:29N 38°54' E 001°26'0 0.0
2018-Aug-12 07:57N 38°54' E 001°26'0 0.0
2018-Aug-12 07:30N 38°54' E 001°26'0 0.0
2018-Aug-12 06:58N 38°54' E 001°26'0 0.0
2018-Aug-12 06:30N 38°54' E 001°26'0 0.0
2018-Aug-12 05:56N 38°54' E 001°26'0 0.0
2018-Aug-12 05:30N 38°54' E 001°26'0 0.0
2018-Aug-12 04:58N 38°54' E 001°26'0 0.0
2018-Aug-12 04:30N 38°54' E 001°26'0 0.0
2018-Aug-12 03:58N 38°54' E 001°26'0 0.0
2018-Aug-12 03:29N 38°54' E 001°26'0 0.0
2018-Aug-12 03:00N 38°54' E 001°26'0 0.0
2018-Aug-12 02:29N 38°54' E 001°26'0 0.0
2018-Aug-12 01:57N 38°54' E 001°26'0 0.0
2018-Aug-12 01:29N 38°54' E 001°26'0 0.0
2018-Aug-12 00:57N 38°54' E 001°26'0 0.0
2018-Aug-12 00:27N 38°54' E 001°26'0 0.0
2018-Aug-11 23:55N 38°54' E 001°26'0 0.0
2018-Aug-11 23:29N 38°54' E 001°26'0 0.0
2018-Aug-11 22:53N 38°54' E 001°26'0 0.0
2018-Aug-11 22:27N 38°54' E 001°26'0 0.0
2018-Aug-11 22:00N 38°54' E 001°26'0 0.0
2018-Aug-11 21:27N 38°54' E 001°26'0 0.0
2018-Aug-11 20:57N 38°54' E 001°26'0 0.0
2018-Aug-11 20:31N 38°54' E 001°26'0 0.0
2018-Aug-11 19:58N 38°54' E 001°26'0 0.0
2018-Aug-11 19:29N 38°54' E 001°26'0 0.0
2018-Aug-11 18:56N 38°54' E 001°26'0 0.0
2018-Aug-11 18:29N 38°54' E 001°26'0 0.0
2018-Aug-11 18:00N 38°54' E 001°26'0 0.0
2018-Aug-11 17:29N 38°54' E 001°26'0 0.0
2018-Aug-11 16:58N 38°54' E 001°26'0 0.0
2018-Aug-11 16:27N 38°54' E 001°26'0 0.0
2018-Aug-11 15:58N 38°54' E 001°26'0 0.0
2018-Aug-11 15:27N 38°54' E 001°26'0 0.0
2018-Aug-11 14:54N 38°54' E 001°26'0 0.0
2018-Aug-11 14:30N 38°54' E 001°26'0 0.0
2018-Aug-11 13:59N 38°54' E 001°26'0 0.1
2018-Aug-11 13:30N 38°54' E 001°26'5 9.2
2018-Aug-11 13:00N 38°55' E 001°31'4812.6
2018-Aug-11 09:10N 39°22' E 002°23'212.6
2018-Aug-11 09:00N 39°23' E 002°26'612.7
2018-Aug-11 08:30N 39°27' E 002°32'4 9.0
2018-Aug-11 08:00N 39°32' E 002°34'0 0.5
2018-Aug-11 07:30N 39°32' E 002°34'0 0.0
2018-Aug-11 07:00N 39°32' E 002°34'0 0.0
2018-Aug-11 06:30N 39°32' E 002°34'0 0.0
2018-Aug-11 06:00N 39°32' E 002°34'0 0.0
2018-Aug-11 05:30N 39°32' E 002°34'0 0.0
2018-Aug-11 05:00N 39°32' E 002°34'0 0.0
2018-Aug-11 04:30N 39°32' E 002°34'0 0.0
2018-Aug-11 04:00N 39°32' E 002°34'0 0.0
2018-Aug-11 03:30N 39°32' E 002°34'0 0.0
2018-Aug-11 03:00N 39°32' E 002°34'0 0.0
2018-Aug-11 02:30N 39°32' E 002°34'0 0.0
2018-Aug-11 02:00N 39°32' E 002°34'0 0.0
2018-Aug-11 01:29N 39°32' E 002°34'0 0.0
2018-Aug-11 00:59N 39°32' E 002°34'0 0.0
2018-Aug-11 00:28N 39°32' E 002°34'0 0.0
2018-Aug-10 23:57N 39°32' E 002°34'0 0.0
2018-Aug-10 23:28N 39°32' E 002°34'0 0.0
2018-Aug-10 22:58N 39°32' E 002°34'0 0.0
2018-Aug-10 22:18N 39°32' E 002°34'0 0.0
2018-Aug-10 21:59N 39°32' E 002°34'0 0.0
2018-Aug-10 21:28N 39°32' E 002°34'0 0.0
2018-Aug-10 20:59N 39°32' E 002°34'0 0.0
2018-Aug-10 20:28N 39°32' E 002°34'0 0.0
2018-Aug-10 19:59N 39°32' E 002°34'0 0.0
2018-Aug-10 19:30N 39°32' E 002°34'0 0.0
2018-Aug-10 18:59N 39°32' E 002°34'0 0.0
2018-Aug-10 18:30N 39°32' E 002°34'0 0.0
2018-Aug-10 18:00N 39°32' E 002°34'0 0.0
2018-Aug-10 17:30N 39°32' E 002°34'0 0.0
2018-Aug-10 16:58N 39°32' E 002°34'0 0.0
2018-Aug-10 16:30N 39°32' E 002°34'0 0.0
2018-Aug-10 16:00N 39°32' E 002°34'0 0.0
2018-Aug-10 15:30N 39°32' E 002°34'0 0.0
2018-Aug-10 15:00N 39°32' E 002°34'0 0.0
2018-Aug-10 14:28N 39°32' E 002°34'0 0.0
2018-Aug-10 14:00N 39°32' E 002°34'0 0.0
2018-Aug-10 13:30N 39°32' E 002°34'0 0.0
2018-Aug-10 12:59N 39°32' E 002°34'0 0.0
2018-Aug-10 12:21N 39°32' E 002°34'0 0.0
2018-Aug-10 12:00N 39°32' E 002°34'0 0.0
2018-Aug-10 11:30N 39°32' E 002°34'0 0.0
2018-Aug-10 10:59N 39°32' E 002°34'0 0.0
2018-Aug-10 10:29N 39°32' E 002°34'0 0.0
2018-Aug-10 09:59N 39°32' E 002°34'0 0.0
2018-Aug-10 09:29N 39°32' E 002°34'0 0.0
2018-Aug-10 09:00N 39°32' E 002°34'0 0.0
2018-Aug-10 08:30N 39°32' E 002°34'0 0.0
2018-Aug-10 08:00N 39°32' E 002°34'0 0.0
2018-Aug-10 07:28N 39°32' E 002°34'0 0.0
2018-Aug-10 06:59N 39°32' E 002°34'0 0.0
2018-Aug-10 06:30N 39°32' E 002°34'0 0.0
2018-Aug-10 06:00N 39°32' E 002°34'0 0.0
2018-Aug-10 05:28N 39°32' E 002°34'0 0.0
2018-Aug-10 04:59N 39°32' E 002°34'0 0.0
2018-Aug-10 04:30N 39°32' E 002°34'0 0.0
2018-Aug-10 03:57N 39°32' E 002°34'0 0.0
2018-Aug-10 03:23N 39°32' E 002°34'0 0.0
2018-Aug-10 02:51N 39°32' E 002°34'0 0.0
2018-Aug-10 02:28N 39°32' E 002°34'0 0.0
2018-Aug-10 01:59N 39°32' E 002°34'0 0.0
2018-Aug-10 01:25N 39°32' E 002°34'0 0.0
2018-Aug-10 00:59N 39°32' E 002°34'0 0.0
2018-Aug-10 00:30N 39°32' E 002°34'0 0.0
2018-Aug-09 23:09N 39°32' E 002°34'0 0.0
2018-Aug-09 23:00N 39°32' E 002°34'0 0.0
2018-Aug-09 22:30N 39°32' E 002°34'0 0.0
2018-Aug-09 21:48N 39°32' E 002°34'0 0.0
2018-Aug-09 21:22N 39°32' E 002°34'0 0.0
2018-Aug-09 20:35N 39°32' E 002°34'0 0.0
2018-Aug-09 20:30N 39°32' E 002°34'0 0.0
2018-Aug-09 19:56N 39°32' E 002°34'0 0.0
2018-Aug-09 19:25N 39°32' E 002°34'0 0.0
2018-Aug-09 19:00N 39°32' E 002°34'0 0.0
2018-Aug-09 18:30N 39°32' E 002°34'0 0.0
2018-Aug-09 17:57N 39°32' E 002°34'0 0.0
2018-Aug-09 16:48N 39°32' E 002°34'0 0.0
2018-Aug-09 16:19N 39°32' E 002°34'0 0.0
2018-Aug-09 15:59N 39°32' E 002°34'0 0.0
2018-Aug-09 15:29N 39°32' E 002°34'0 0.0
2018-Aug-09 14:43N 39°32' E 002°34'0 0.0
2018-Aug-09 14:29N 39°32' E 002°34'1 1.9
2018-Aug-09 14:00N 39°31' E 002°34'612.4
2018-Aug-09 13:30N 39°26' E 002°38'612.9
2018-Aug-09 13:00N 39°21' E 002°44'612.7
2018-Aug-09 12:30N 39°18' E 002°52'712.6
2018-Aug-09 11:59N 39°16' E 002°60'1511.5
2018-Aug-09 10:39N 39°21' E 003°18'412.3
2018-Aug-09 10:21N 39°23' E 003°23'299 6.7
2018-Aug-07 13:32N 41°15' E 009°26'0 0.0
2018-Aug-07 13:23N 41°15' E 009°26'0 0.0
2018-Aug-07 12:56N 41°15' E 009°26'  

Dump ship's entire track history